createdAt,value
2018-03-25T00:01:53.304Z,4.15
2018-03-25T00:04:21.240Z,4.12
2018-03-25T00:06:49.184Z,3.84
2018-03-25T00:09:17.094Z,3.80
2018-03-25T00:11:45.057Z,3.65
2018-03-25T00:14:13.014Z,3.42
2018-03-25T00:16:41.035Z,3.33
2018-03-25T00:19:08.959Z,3.23
2018-03-25T00:21:36.922Z,3.27
2018-03-25T00:24:04.946Z,3.23
2018-03-25T00:26:32.913Z,3.16
2018-03-25T00:29:00.842Z,3.12
2018-03-25T00:31:28.787Z,3.01
2018-03-25T00:33:56.736Z,2.99
2018-03-25T00:36:24.668Z,3.03
2018-03-25T00:38:52.618Z,2.99
2018-03-25T00:41:20.634Z,3.00
2018-03-25T00:43:48.559Z,3.02
2018-03-25T00:46:16.497Z,3.01
2018-03-25T00:48:44.433Z,3.01
2018-03-25T00:51:12.360Z,2.89
2018-03-25T00:53:40.302Z,2.71
2018-03-25T00:56:08.244Z,2.62
2018-03-25T00:58:36.173Z,2.57
2018-03-25T01:01:05.025Z,2.55
2018-03-25T01:03:32.973Z,2.70
2018-03-25T01:06:00.949Z,2.62
2018-03-25T01:08:28.892Z,2.66
2018-03-25T01:10:56.838Z,2.46
2018-03-25T01:13:24.784Z,2.52
2018-03-25T01:16:04.571Z,2.35
2018-03-25T01:18:32.674Z,2.44
2018-03-25T01:21:00.682Z,2.27
2018-03-25T01:23:28.682Z,2.27
2018-03-25T01:25:56.605Z,2.51
2018-03-25T01:28:24.604Z,2.47
2018-03-25T01:30:52.538Z,2.51
2018-03-25T01:33:20.544Z,2.50
2018-03-25T01:35:48.527Z,2.53
2018-03-25T01:38:16.496Z,2.52
2018-03-25T01:40:44.432Z,2.32
2018-03-25T01:43:12.386Z,2.38
2018-03-25T01:45:40.327Z,2.39
2018-03-25T01:48:08.279Z,2.47
2018-03-25T01:50:36.222Z,2.32
2018-03-25T01:53:04.201Z,2.20
2018-03-25T01:55:32.105Z,2.41
2018-03-25T01:58:00.052Z,2.42
2018-03-25T02:00:27.960Z,2.27
2018-03-25T02:02:55.878Z,2.37
2018-03-25T02:05:23.883Z,2.46
2018-03-25T02:07:51.805Z,2.49
2018-03-25T02:10:19.742Z,2.54
2018-03-25T02:12:47.664Z,2.53
2018-03-25T02:15:15.574Z,2.53
2018-03-25T02:17:43.541Z,2.56
2018-03-25T02:20:11.459Z,2.43
2018-03-25T02:22:39.377Z,2.45
2018-03-25T02:25:07.451Z,2.47
2018-03-25T02:27:35.436Z,2.59
2018-03-25T02:30:03.375Z,2.64
2018-03-25T02:32:31.379Z,2.72
2018-03-25T02:34:59.368Z,2.59
2018-03-25T02:37:27.307Z,2.55
2018-03-25T02:39:55.266Z,2.64
2018-03-25T02:42:23.290Z,2.55
2018-03-25T02:44:51.224Z,2.55
2018-03-25T02:47:19.165Z,2.66
2018-03-25T02:49:47.056Z,2.67
2018-03-25T02:52:15.017Z,2.73
2018-03-25T02:54:42.955Z,2.74
2018-03-25T02:57:10.921Z,2.81
2018-03-25T02:59:38.813Z,2.83
2018-03-25T03:02:08.797Z,2.83
2018-03-25T03:04:36.796Z,2.91
2018-03-25T03:07:04.851Z,2.84
2018-03-25T03:09:32.887Z,2.78
2018-03-25T03:12:00.936Z,2.80
2018-03-25T03:14:29.043Z,2.85
2018-03-25T03:16:57.051Z,2.68
2018-03-25T03:19:25.073Z,2.66
2018-03-25T03:21:53.150Z,2.65
2018-03-25T03:24:21.189Z,2.46
2018-03-25T03:26:49.210Z,2.56
2018-03-25T03:29:17.209Z,2.50
2018-03-25T03:31:45.234Z,2.53
2018-03-25T03:34:13.397Z,2.61
2018-03-25T03:36:41.414Z,2.69
2018-03-25T03:39:09.414Z,2.83
2018-03-25T03:41:37.400Z,2.62
2018-03-25T03:44:05.586Z,2.68
2018-03-25T03:46:33.934Z,2.62
2018-03-25T03:49:01.970Z,2.36
2018-03-25T03:51:30.004Z,2.29
2018-03-25T03:53:58.019Z,2.39
2018-03-25T03:56:26.036Z,2.32
2018-03-25T03:58:54.059Z,2.36
2018-03-25T04:01:22.058Z,2.36
2018-03-25T04:03:50.078Z,2.07
2018-03-25T04:06:18.075Z,2.26
2018-03-25T04:08:46.105Z,2.32
2018-03-25T04:11:14.624Z,2.19
2018-03-25T04:13:42.634Z,2.14
2018-03-25T04:16:10.704Z,2.08
2018-03-25T04:18:38.710Z,2.03
2018-03-25T04:21:06.723Z,2.05
2018-03-25T04:23:34.745Z,2.07
2018-03-25T04:26:02.784Z,2.13
2018-03-25T04:28:30.833Z,2.15
2018-03-25T04:30:58.825Z,2.15
2018-03-25T04:33:26.833Z,2.03
2018-03-25T04:35:54.905Z,2.07
2018-03-25T04:38:22.911Z,1.93
2018-03-25T04:40:51.016Z,1.83
2018-03-25T04:43:19.058Z,2.00
2018-03-25T04:45:47.680Z,1.92
2018-03-25T04:48:15.854Z,1.91
2018-03-25T04:50:43.910Z,2.05
2018-03-25T04:53:11.976Z,2.03
2018-03-25T04:55:39.983Z,2.14
2018-03-25T04:58:07.991Z,2.16
2018-03-25T05:00:35.989Z,1.98
2018-03-25T05:03:04.003Z,1.94
2018-03-25T05:05:32.016Z,1.78
2018-03-25T05:08:00.038Z,1.97
2018-03-25T05:10:28.011Z,2.05
2018-03-25T05:12:55.991Z,2.09
2018-03-25T05:15:24.012Z,2.12
2018-03-25T05:17:51.994Z,2.07
2018-03-25T05:20:20.021Z,2.10
2018-03-25T05:22:48.020Z,1.98
2018-03-25T05:25:16.038Z,2.09
2018-03-25T05:27:44.051Z,2.05
2018-03-25T05:30:12.097Z,2.03
2018-03-25T05:32:40.102Z,2.19
2018-03-25T05:35:08.084Z,2.21
2018-03-25T05:37:36.139Z,2.11
2018-03-25T05:40:04.197Z,2.03
2018-03-25T05:42:32.222Z,2.08
2018-03-25T05:45:00.255Z,2.08
2018-03-25T05:47:28.394Z,2.23
2018-03-25T05:49:56.387Z,2.32
2018-03-25T05:52:24.380Z,2.50
2018-03-25T05:54:52.422Z,2.55
2018-03-25T05:57:20.412Z,2.41
2018-03-25T05:59:48.425Z,2.42
2018-03-25T06:02:16.424Z,2.28
2018-03-25T06:04:44.514Z,2.22
2018-03-25T06:07:12.599Z,2.10
2018-03-25T06:09:40.638Z,2.29
2018-03-25T06:12:08.639Z,2.00
2018-03-25T06:14:36.710Z,2.19
2018-03-25T06:17:04.759Z,2.09
2018-03-25T06:19:32.822Z,2.29
2018-03-25T06:22:00.842Z,2.28
2018-03-25T06:24:28.876Z,2.52
2018-03-25T06:26:56.933Z,2.61
2018-03-25T06:29:25.000Z,2.73
2018-03-25T06:31:53.094Z,2.95
2018-03-25T06:34:21.129Z,3.35
2018-03-25T06:36:49.178Z,3.47
2018-03-25T06:39:17.235Z,3.62
2018-03-25T06:41:45.251Z,4.04
2018-03-25T06:44:13.338Z,4.19
2018-03-25T06:46:41.332Z,4.46
2018-03-25T06:49:09.369Z,4.76
2018-03-25T06:51:38.607Z,4.88
2018-03-25T06:54:06.978Z,5.10
2018-03-25T06:56:35.034Z,5.27
2018-03-25T06:59:03.058Z,5.45
2018-03-25T07:01:31.055Z,5.77
2018-03-25T07:03:59.347Z,6.01
2018-03-25T07:06:27.344Z,6.36
2018-03-25T07:08:56.308Z,6.46
2018-03-25T07:11:24.359Z,6.63
2018-03-25T07:13:52.426Z,7.03
2018-03-25T07:16:20.573Z,7.22
2018-03-25T07:18:48.581Z,7.56
2018-03-25T07:21:16.607Z,7.82
2018-03-25T07:23:44.614Z,8.02
2018-03-25T07:26:12.608Z,8.56
2018-03-25T07:28:40.645Z,8.71
2018-03-25T07:31:08.630Z,8.38
2018-03-25T07:33:36.625Z,8.21
2018-03-25T07:36:04.648Z,8.26
2018-03-25T07:38:32.655Z,8.61
2018-03-25T07:41:00.720Z,9.48
2018-03-25T07:43:28.710Z,9.40
2018-03-25T07:45:56.741Z,9.84
2018-03-25T07:48:24.748Z,10.18
2018-03-25T07:50:52.755Z,10.29
2018-03-25T07:53:20.783Z,10.68
2018-03-25T07:55:49.701Z,10.92
2018-03-25T07:58:17.764Z,10.98
2018-03-25T08:00:45.868Z,11.01
2018-03-25T08:03:14.005Z,11.66
2018-03-25T08:05:42.127Z,12.33
2018-03-25T08:08:10.169Z,12.13
2018-03-25T08:10:38.201Z,12.38
2018-03-25T08:13:06.817Z,12.69
2018-03-25T08:15:34.832Z,12.94
2018-03-25T08:18:02.827Z,12.81
2018-03-25T08:20:31.518Z,13.27
2018-03-25T08:22:59.591Z,13.22
2018-03-25T08:25:27.677Z,12.96
2018-03-25T08:27:55.695Z,12.90
2018-03-25T08:30:23.763Z,13.55
2018-03-25T08:32:51.796Z,13.61
2018-03-25T08:35:19.808Z,13.15
2018-03-25T08:37:47.800Z,13.59
2018-03-25T08:40:15.971Z,13.53
2018-03-25T08:42:43.965Z,13.55
2018-03-25T08:45:12.077Z,14.13
2018-03-25T08:47:40.120Z,14.21
2018-03-25T08:50:08.266Z,14.80
2018-03-25T08:52:36.307Z,15.40
2018-03-25T08:55:04.326Z,15.55
2018-03-25T08:57:32.366Z,15.49
2018-03-25T09:00:00.353Z,16.49
2018-03-25T09:02:28.371Z,16.73
2018-03-25T09:04:56.396Z,16.95
2018-03-25T09:07:24.392Z,16.25
2018-03-25T09:09:52.440Z,16.49
2018-03-25T09:12:20.459Z,16.62
2018-03-25T09:14:48.511Z,16.63
2018-03-25T09:17:16.545Z,16.56
2018-03-25T09:19:44.577Z,16.70
2018-03-25T09:22:12.588Z,16.63
2018-03-25T09:24:40.586Z,16.76
2018-03-25T09:27:08.637Z,16.17
2018-03-25T09:29:36.656Z,16.73
2018-03-25T09:32:06.037Z,16.96
2018-03-25T09:34:34.275Z,17.32
2018-03-25T09:37:02.438Z,17.36
2018-03-25T09:39:30.465Z,17.47
2018-03-25T09:41:58.527Z,17.33
2018-03-25T09:44:27.187Z,17.79
2018-03-25T09:46:55.169Z,18.04
2018-03-25T09:49:23.194Z,18.74
2018-03-25T09:51:51.201Z,19.01
2018-03-25T09:54:19.239Z,19.16
2018-03-25T09:56:47.270Z,19.51
2018-03-25T09:59:15.718Z,19.33
2018-03-25T10:01:49.488Z,19.33
2018-03-25T10:04:17.589Z,19.68
2018-03-25T10:06:45.622Z,18.84
2018-03-25T10:09:13.795Z,18.55
2018-03-25T10:11:41.818Z,18.74
2018-03-25T10:14:09.826Z,19.62
2018-03-25T10:16:38.172Z,19.88
2018-03-25T10:19:06.261Z,20.25
2018-03-25T10:21:34.310Z,20.19
2018-03-25T10:24:02.335Z,20.06
2018-03-25T10:26:30.359Z,20.74
2018-03-25T10:28:58.398Z,20.76
2018-03-25T10:31:26.548Z,20.10
2018-03-25T10:33:54.603Z,19.58
2018-03-25T10:36:22.631Z,19.56
2018-03-25T10:38:50.655Z,19.43
2018-03-25T10:41:18.704Z,19.38
2018-03-25T10:43:46.810Z,20.10
2018-03-25T10:46:14.944Z,20.44
2018-03-25T10:48:42.934Z,20.31
2018-03-25T10:51:10.957Z,20.95
2018-03-25T10:53:39.029Z,20.84
2018-03-25T10:56:07.026Z,19.69
2018-03-25T10:58:35.006Z,18.61
2018-03-25T11:01:03.041Z,18.66
2018-03-25T11:03:31.107Z,18.37
2018-03-25T11:06:00.505Z,18.95
2018-03-25T11:08:29.882Z,19.07
2018-03-25T11:10:57.946Z,18.87
2018-03-25T11:13:26.119Z,18.89
2018-03-25T11:15:54.293Z,19.43
2018-03-25T11:18:22.365Z,19.72
2018-03-25T11:20:50.517Z,19.74
2018-03-25T11:23:18.606Z,19.30
2018-03-25T11:25:46.726Z,18.30
2018-03-25T11:28:14.866Z,19.03
2018-03-25T11:30:42.924Z,20.03
2018-03-25T11:33:11.098Z,19.48
2018-03-25T11:35:39.121Z,19.31
2018-03-25T11:38:07.191Z,20.83
2018-03-25T11:40:35.232Z,20.20
2018-03-25T11:43:03.285Z,19.75
2018-03-25T11:45:31.385Z,20.42
2018-03-25T11:47:59.420Z,20.54
2018-03-25T11:50:27.443Z,19.90
2018-03-25T11:52:55.463Z,20.22
2018-03-25T11:55:23.538Z,20.87
2018-03-25T11:57:51.605Z,20.25
2018-03-25T12:00:19.680Z,19.35
2018-03-25T12:02:47.794Z,18.32
2018-03-25T12:05:15.820Z,17.31
2018-03-25T12:07:43.869Z,16.77
2018-03-25T12:10:11.912Z,16.17
2018-03-25T12:12:39.936Z,15.86
2018-03-25T12:15:08.014Z,15.30
2018-03-25T12:17:36.025Z,15.42
2018-03-25T12:20:04.362Z,14.92
2018-03-25T12:22:32.367Z,14.48
2018-03-25T12:25:00.428Z,14.35
2018-03-25T12:27:28.489Z,13.74
2018-03-25T12:29:56.493Z,13.78
2018-03-25T12:32:24.504Z,13.39
2018-03-25T12:34:52.649Z,13.17
2018-03-25T12:37:20.791Z,12.97
2018-03-25T12:39:48.812Z,12.86
2018-03-25T12:42:16.859Z,12.97
2018-03-25T12:44:45.355Z,12.97
2018-03-25T12:47:13.661Z,12.58
2018-03-25T12:49:42.307Z,12.59
2018-03-25T12:52:10.351Z,12.59
2018-03-25T12:54:38.371Z,12.76
2018-03-25T12:57:06.366Z,12.74
2018-03-25T12:59:34.385Z,12.88
2018-03-25T13:02:02.513Z,12.89
2018-03-25T13:04:30.522Z,12.84
2018-03-25T13:06:58.531Z,12.85
2018-03-25T13:09:26.603Z,12.87
2018-03-25T13:11:54.605Z,12.64
2018-03-25T13:14:22.682Z,12.67
2018-03-25T13:16:50.706Z,12.77
2018-03-25T13:19:18.699Z,12.72
2018-03-25T13:21:46.889Z,12.58
2018-03-25T13:24:14.988Z,12.51
2018-03-25T13:26:42.993Z,12.43
2018-03-25T13:29:11.088Z,12.23
2018-03-25T13:31:39.107Z,12.08
2018-03-25T13:34:07.128Z,12.18
2018-03-25T13:36:35.389Z,12.21
2018-03-25T13:39:03.452Z,12.16
2018-03-25T13:41:31.459Z,12.28
2018-03-25T13:43:59.479Z,12.19
2018-03-25T13:46:27.497Z,12.23
2018-03-25T13:48:56.093Z,12.35
2018-03-25T13:51:24.118Z,12.36
2018-03-25T13:53:52.239Z,12.20
2018-03-25T13:56:20.225Z,11.98
2018-03-25T13:58:48.544Z,11.94
2018-03-25T14:01:16.595Z,12.03
2018-03-25T14:03:44.793Z,11.96
2018-03-25T14:06:12.862Z,11.93
2018-03-25T14:08:40.906Z,11.91
2018-03-25T14:11:08.960Z,11.76
2018-03-25T14:13:37.001Z,11.91
2018-03-25T14:16:05.081Z,11.86
2018-03-25T14:18:33.115Z,11.71
2018-03-25T14:21:01.145Z,11.62
2018-03-25T14:23:29.217Z,11.45
2018-03-25T14:25:57.239Z,11.43
2018-03-25T14:28:25.340Z,11.44
2018-03-25T14:30:53.530Z,11.49
2018-03-25T14:33:21.634Z,11.29
2018-03-25T14:35:49.781Z,11.18
2018-03-25T14:38:17.819Z,11.38
2018-03-25T14:40:45.860Z,11.33
2018-03-25T14:43:13.946Z,11.25
2018-03-25T14:45:42.302Z,11.20
2018-03-25T14:48:10.938Z,11.22
2018-03-25T14:50:38.998Z,11.29
2018-03-25T14:53:07.132Z,11.34
2018-03-25T14:55:35.186Z,11.29
2018-03-25T14:58:03.246Z,11.41
2018-03-25T15:00:31.357Z,11.24
2018-03-25T15:02:59.414Z,11.29
2018-03-25T15:05:27.408Z,11.19
2018-03-25T15:07:55.410Z,11.14
2018-03-25T15:10:23.497Z,11.15
2018-03-25T15:12:51.495Z,11.34
2018-03-25T15:15:19.539Z,11.15
2018-03-25T15:17:47.585Z,11.33
2018-03-25T15:20:15.625Z,11.18
2018-03-25T15:22:43.707Z,11.10
2018-03-25T15:25:11.768Z,11.12
2018-03-25T15:27:39.810Z,11.16
2018-03-25T15:30:07.927Z,11.19
2018-03-25T15:32:36.015Z,10.98
2018-03-25T15:35:04.114Z,11.04
2018-03-25T15:37:32.127Z,11.00
2018-03-25T15:40:00.181Z,10.96
2018-03-25T15:42:28.253Z,11.15
2018-03-25T15:44:56.284Z,11.00
2018-03-25T15:47:24.305Z,10.89
2018-03-25T15:49:52.373Z,10.85
2018-03-25T15:52:20.496Z,10.75
2018-03-25T15:54:48.556Z,10.72
2018-03-25T15:57:17.367Z,10.63
2018-03-25T15:59:48.266Z,10.72
2018-03-25T16:02:16.364Z,10.62
2018-03-25T16:04:44.678Z,10.74
2018-03-25T16:07:12.706Z,10.62
2018-03-25T16:09:40.829Z,10.66
2018-03-25T16:12:08.796Z,10.67
2018-03-25T16:14:36.822Z,10.68
2018-03-25T16:17:04.873Z,10.55
2018-03-25T16:19:32.928Z,10.62
2018-03-25T16:22:01.068Z,10.49
2018-03-25T16:24:30.320Z,10.39
2018-03-25T16:26:58.443Z,10.42
2018-03-25T16:29:26.857Z,10.49
2018-03-25T16:31:54.933Z,10.44
2018-03-25T16:34:22.963Z,10.44
2018-03-25T16:36:50.970Z,10.46
2018-03-25T16:39:18.973Z,10.49
2018-03-25T16:41:47.001Z,10.42
2018-03-25T16:44:15.010Z,10.43
2018-03-25T16:46:43.037Z,10.33
2018-03-25T16:49:11.026Z,10.25
2018-03-25T16:51:39.067Z,10.12
2018-03-25T16:54:07.059Z,10.20
2018-03-25T16:56:35.089Z,10.22
2018-03-25T16:59:03.096Z,10.13
2018-03-25T17:01:31.138Z,10.01
2018-03-25T17:03:59.154Z,10.25
2018-03-25T17:06:27.349Z,10.39
2018-03-25T17:08:55.354Z,10.44
2018-03-25T17:11:23.399Z,10.33
2018-03-25T17:13:51.411Z,10.12
2018-03-25T17:16:19.406Z,9.98
2018-03-25T17:18:47.398Z,10.22
2018-03-25T17:21:15.435Z,10.09
2018-03-25T17:23:43.474Z,10.01
2018-03-25T17:26:11.478Z,9.93
2018-03-25T17:28:39.485Z,9.83
2018-03-25T17:31:07.847Z,9.97
2018-03-25T17:33:35.838Z,9.99
2018-03-25T17:36:04.118Z,10.05
2018-03-25T17:38:32.166Z,9.91
2018-03-25T17:41:00.182Z,10.00
2018-03-25T17:43:28.199Z,10.08
2018-03-25T17:45:56.173Z,9.86
2018-03-25T17:48:24.179Z,9.86
2018-03-25T17:50:52.219Z,9.82
2018-03-25T17:53:20.270Z,10.46
2018-03-25T17:55:48.291Z,11.09
2018-03-25T17:58:16.293Z,11.11
2018-03-25T18:00:44.847Z,11.74
2018-03-25T18:03:13.316Z,11.64
2018-03-25T18:05:41.337Z,11.63
2018-03-25T18:08:09.465Z,11.77
2018-03-25T18:10:37.476Z,11.73
2018-03-25T18:13:06.147Z,10.83
2018-03-25T18:15:34.177Z,10.60
2018-03-25T18:18:02.177Z,10.39
2018-03-25T18:20:30.195Z,10.44
2018-03-25T18:22:58.236Z,10.41
2018-03-25T18:25:26.236Z,10.31
2018-03-25T18:27:54.300Z,10.15
2018-03-25T18:30:22.313Z,10.12
2018-03-25T18:32:50.631Z,9.78
2018-03-25T18:35:18.803Z,9.89
2018-03-25T18:37:46.827Z,10.05
2018-03-25T18:40:15.457Z,10.08
2018-03-25T18:42:43.460Z,10.07
2018-03-25T18:45:13.372Z,10.15
2018-03-25T18:47:41.435Z,10.21
2018-03-25T18:50:09.465Z,10.11
2018-03-25T18:52:37.454Z,10.15
2018-03-25T18:55:05.455Z,10.36
2018-03-25T18:57:33.486Z,9.88
2018-03-25T19:00:01.494Z,9.74
2018-03-25T19:02:29.535Z,9.64
2018-03-25T19:04:58.792Z,9.66
2018-03-25T19:07:26.833Z,9.57
2018-03-25T19:09:56.683Z,9.79
2018-03-25T19:12:25.163Z,10.01
2018-03-25T19:14:53.371Z,9.86
2018-03-25T19:17:21.470Z,10.07
2018-03-25T19:19:49.569Z,9.82
2018-03-25T19:22:17.577Z,9.98
2018-03-25T19:24:45.589Z,9.97
2018-03-25T19:27:13.683Z,10.11
2018-03-25T19:29:41.736Z,10.10
2018-03-25T19:32:09.860Z,10.31
2018-03-25T19:34:37.966Z,10.07
2018-03-25T19:37:06.276Z,10.38
2018-03-25T19:39:34.329Z,10.04
2018-03-25T19:42:02.886Z,10.15
2018-03-25T19:44:30.896Z,10.06
2018-03-25T19:46:59.477Z,10.10
2018-03-25T19:49:27.552Z,10.07
2018-03-25T19:51:55.578Z,10.29
2018-03-25T19:54:23.623Z,10.10
2018-03-25T19:56:51.664Z,9.92
2018-03-25T19:59:19.651Z,9.95
2018-03-25T20:01:49.951Z,10.05
2018-03-25T20:04:18.027Z,10.12
2018-03-25T20:06:46.026Z,10.15
2018-03-25T20:09:14.069Z,10.28
2018-03-25T20:11:42.115Z,10.90
2018-03-25T20:14:10.177Z,11.15
2018-03-25T20:16:38.236Z,11.19
2018-03-25T20:19:07.287Z,11.66
2018-03-25T20:21:35.391Z,11.83
2018-03-25T20:24:03.878Z,11.70
2018-03-25T20:26:31.905Z,11.88
2018-03-25T20:29:01.131Z,11.83
2018-03-25T20:31:29.189Z,11.07
2018-03-25T20:33:57.191Z,10.71
2018-03-25T20:36:25.862Z,10.28
2018-03-25T20:38:54.137Z,9.65
2018-03-25T20:41:22.176Z,9.49
2018-03-25T20:43:50.189Z,9.51
2018-03-25T20:46:19.114Z,9.53
2018-03-25T20:48:47.137Z,9.41
2018-03-25T20:51:15.314Z,9.42
2018-03-25T20:53:43.491Z,9.45
2018-03-25T20:56:11.610Z,9.23
2018-03-25T20:58:39.651Z,9.31
2018-03-25T21:01:07.966Z,9.16
2018-03-25T21:03:36.202Z,9.15
2018-03-25T21:06:04.267Z,9.03
2018-03-25T21:08:32.912Z,8.87
2018-03-25T21:11:01.231Z,8.93
2018-03-25T21:13:29.304Z,8.87
2018-03-25T21:15:57.340Z,8.88
2018-03-25T21:18:25.699Z,8.80
2018-03-25T21:20:53.810Z,8.90
2018-03-25T21:23:21.855Z,8.81
2018-03-25T21:25:49.866Z,8.65
2018-03-25T21:28:17.876Z,8.75
2018-03-25T21:30:51.748Z,8.73
2018-03-25T21:33:19.856Z,8.88
2018-03-25T21:35:47.942Z,8.70
2018-03-25T21:38:16.300Z,8.62
2018-03-25T21:40:45.135Z,8.52
2018-03-25T21:43:13.161Z,8.56
2018-03-25T21:45:41.218Z,8.67
2018-03-25T21:48:09.303Z,8.58
2018-03-25T21:50:37.497Z,8.43
2018-03-25T21:53:05.521Z,8.44
2018-03-25T21:55:33.557Z,8.51
2018-03-25T21:58:01.624Z,8.53
2018-03-25T22:00:29.658Z,8.50
2018-03-25T22:03:07.394Z,8.53
2018-03-25T22:05:35.427Z,8.34
2018-03-25T22:08:03.479Z,8.16
2018-03-25T22:10:31.507Z,8.29
2018-03-25T22:12:59.555Z,8.53
2018-03-25T22:15:27.621Z,8.71
2018-03-25T22:17:55.720Z,8.77
2018-03-25T22:20:23.746Z,9.20
2018-03-25T22:22:52.136Z,9.08
2018-03-25T22:25:20.177Z,8.90
2018-03-25T22:27:48.192Z,8.82
2018-03-25T22:30:16.910Z,8.83
2018-03-25T22:32:44.981Z,8.79
2018-03-25T22:35:12.978Z,8.73
2018-03-25T22:37:40.983Z,8.68
2018-03-25T22:40:09.003Z,8.56
2018-03-25T22:42:37.638Z,8.45
2018-03-25T22:45:06.467Z,8.42
2018-03-25T22:47:35.724Z,8.49
2018-03-25T22:50:03.722Z,8.43
2018-03-25T22:52:31.815Z,8.38
2018-03-25T22:55:05.751Z,8.28
2018-03-25T22:57:33.790Z,8.33
2018-03-25T23:00:01.818Z,8.23
2018-03-25T23:02:29.862Z,8.23
2018-03-25T23:04:57.889Z,8.30
2018-03-25T23:07:26.433Z,8.17
2018-03-25T23:09:58.258Z,8.20
2018-03-25T23:12:26.598Z,8.05
2018-03-25T23:14:54.585Z,8.15
2018-03-25T23:17:22.566Z,8.24
2018-03-25T23:19:50.593Z,8.14
2018-03-25T23:22:18.599Z,8.16
2018-03-25T23:24:47.214Z,8.09
2018-03-25T23:27:15.270Z,8.18
2018-03-25T23:29:43.269Z,8.21
2018-03-25T23:32:11.282Z,8.16
2018-03-25T23:34:39.306Z,8.14
2018-03-25T23:37:07.302Z,8.13
2018-03-25T23:39:36.368Z,8.15
2018-03-25T23:42:04.431Z,8.05
2018-03-25T23:44:32.426Z,7.94
2018-03-25T23:47:00.442Z,8.00
2018-03-25T23:49:28.461Z,8.02
2018-03-25T23:51:57.115Z,7.97
2018-03-25T23:54:25.158Z,8.02
2018-03-25T23:56:53.195Z,7.96
2018-03-25T23:59:21.248Z,7.91
